sensor_id;sensor_type;location;lat;lon;timestamp;P1;durP1;ratioP1;P2;durP2;ratioP2
34960;SDS011;30789;52.030;7.110;2023-04-24T00:00:39;3.55;;;2.55;;
34960;SDS011;30789;52.030;7.110;2023-04-24T00:03:06;4.25;;;2.90;;
34960;SDS011;30789;52.030;7.110;2023-04-24T00:05:33;4.80;;;2.47;;
34960;SDS011;30789;52.030;7.110;2023-04-24T00:07:59;3.20;;;2.85;;
34960;SDS011;30789;52.030;7.110;2023-04-24T00:10:25;2.88;;;2.67;;
34960;SDS011;30789;52.030;7.110;2023-04-24T00:12:53;4.72;;;2.70;;
34960;SDS011;30789;52.030;7.110;2023-04-24T00:15:20;3.03;;;2.53;;
34960;SDS011;30789;52.030;7.110;2023-04-24T00:17:46;2.88;;;2.53;;
34960;SDS011;30789;52.030;7.110;2023-04-24T00:20:13;2.80;;;2.60;;
34960;SDS011;30789;52.030;7.110;2023-04-24T00:22:39;4.00;;;3.15;;
34960;SDS011;30789;52.030;7.110;2023-04-24T00:25:06;5.68;;;3.83;;
34960;SDS011;30789;52.030;7.110;2023-04-24T00:27:34;5.13;;;4.30;;
34960;SDS011;30789;52.030;7.110;2023-04-24T00:30:04;5.13;;;3.95;;
34960;SDS011;30789;52.030;7.110;2023-04-24T00:32:31;5.00;;;4.20;;
34960;SDS011;30789;52.030;7.110;2023-04-24T00:34:57;4.70;;;4.18;;
34960;SDS011;30789;52.030;7.110;2023-04-24T00:37:24;5.03;;;4.55;;
34960;SDS011;30789;52.030;7.110;2023-04-24T00:39:50;4.55;;;4.15;;
34960;SDS011;30789;52.030;7.110;2023-04-24T00:42:17;4.25;;;3.50;;
34960;SDS011;30789;52.030;7.110;2023-04-24T00:44:43;3.53;;;3.22;;
34960;SDS011;30789;52.030;7.110;2023-04-24T00:47:11;4.10;;;3.60;;
34960;SDS011;30789;52.030;7.110;2023-04-24T00:49:39;4.88;;;3.65;;
34960;SDS011;30789;52.030;7.110;2023-04-24T00:52:05;4.78;;;3.90;;
34960;SDS011;30789;52.030;7.110;2023-04-24T00:54:33;5.85;;;3.92;;
34960;SDS011;30789;52.030;7.110;2023-04-24T00:57:00;4.20;;;3.05;;
34960;SDS011;30789;52.030;7.110;2023-04-24T00:59:27;6.15;;;4.20;;
34960;SDS011;30789;52.030;7.110;2023-04-24T01:01:53;5.07;;;4.30;;
34960;SDS011;30789;52.030;7.110;2023-04-24T01:04:22;5.80;;;4.53;;
34960;SDS011;30789;52.030;7.110;2023-04-24T01:06:49;6.05;;;4.78;;
34960;SDS011;30789;52.030;7.110;2023-04-24T01:09:16;8.00;;;4.28;;
34960;SDS011;30789;52.030;7.110;2023-04-24T01:11:44;6.97;;;4.80;;
34960;SDS011;30789;52.030;7.110;2023-04-24T01:14:10;5.97;;;4.25;;
34960;SDS011;30789;52.030;7.110;2023-04-24T01:16:37;4.22;;;3.78;;
34960;SDS011;30789;52.030;7.110;2023-04-24T01:19:04;6.57;;;4.60;;
34960;SDS011;30789;52.030;7.110;2023-04-24T01:21:34;5.63;;;4.40;;
34960;SDS011;30789;52.030;7.110;2023-04-24T01:24:04;5.05;;;4.35;;
34960;SDS011;30789;52.030;7.110;2023-04-24T01:26:32;5.80;;;4.32;;
34960;SDS011;30789;52.030;7.110;2023-04-24T01:28:58;6.30;;;4.65;;
34960;SDS011;30789;52.030;7.110;2023-04-24T01:31:25;6.85;;;5.43;;
34960;SDS011;30789;52.030;7.110;2023-04-24T01:33:52;7.55;;;5.38;;
34960;SDS011;30789;52.030;7.110;2023-04-24T01:36:18;8.48;;;4.72;;
34960;SDS011;30789;52.030;7.110;2023-04-24T01:38:47;8.93;;;5.75;;
34960;SDS011;30789;52.030;7.110;2023-04-24T01:41:14;6.25;;;5.18;;
34960;SDS011;30789;52.030;7.110;2023-04-24T01:43:41;7.45;;;4.93;;
34960;SDS011;30789;52.030;7.110;2023-04-24T01:46:08;8.23;;;5.53;;
34960;SDS011;30789;52.030;7.110;2023-04-24T01:48:34;8.60;;;5.78;;
34960;SDS011;30789;52.030;7.110;2023-04-24T01:51:01;7.05;;;4.90;;
34960;SDS011;30789;52.030;7.110;2023-04-24T01:53:28;8.18;;;5.45;;
34960;SDS011;30789;52.030;7.110;2023-04-24T01:55:54;8.15;;;5.20;;
34960;SDS011;30789;52.030;7.110;2023-04-24T01:58:22;9.07;;;5.78;;
34960;SDS011;30789;52.030;7.110;2023-04-24T02:00:49;8.73;;;5.65;;
34960;SDS011;30789;52.030;7.110;2023-04-24T02:03:16;6.68;;;5.45;;
34960;SDS011;30789;52.030;7.110;2023-04-24T02:05:43;9.00;;;6.10;;
34960;SDS011;30789;52.030;7.110;2023-04-24T02:08:09;9.23;;;6.75;;
34960;SDS011;30789;52.030;7.110;2023-04-24T02:10:36;7.20;;;6.28;;
34960;SDS011;30789;52.030;7.110;2023-04-24T02:13:03;7.70;;;5.72;;
34960;SDS011;30789;52.030;7.110;2023-04-24T02:15:31;10.68;;;6.20;;
34960;SDS011;30789;52.030;7.110;2023-04-24T02:17:58;7.63;;;5.65;;
34960;SDS011;30789;52.030;7.110;2023-04-24T02:20:24;8.30;;;6.40;;
34960;SDS011;30789;52.030;7.110;2023-04-24T02:22:51;7.10;;;5.80;;
34960;SDS011;30789;52.030;7.110;2023-04-24T02:25:17;9.15;;;6.05;;
34960;SDS011;30789;52.030;7.110;2023-04-24T02:27:44;9.45;;;7.32;;
34960;SDS011;30789;52.030;7.110;2023-04-24T02:30:11;10.15;;;7.25;;
34960;SDS011;30789;52.030;7.110;2023-04-24T02:32:39;9.13;;;6.97;;
34960;SDS011;30789;52.030;7.110;2023-04-24T02:35:06;10.80;;;7.45;;
34960;SDS011;30789;52.030;7.110;2023-04-24T02:37:32;11.65;;;8.40;;
34960;SDS011;30789;52.030;7.110;2023-04-24T02:39:59;11.55;;;8.15;;
34960;SDS011;30789;52.030;7.110;2023-04-24T02:42:25;9.95;;;7.68;;
34960;SDS011;30789;52.030;7.110;2023-04-24T02:44:52;11.60;;;7.97;;
34960;SDS011;30789;52.030;7.110;2023-04-24T02:47:18;9.55;;;7.10;;
34960;SDS011;30789;52.030;7.110;2023-04-24T02:49:46;12.35;;;7.97;;
34960;SDS011;30789;52.030;7.110;2023-04-24T02:52:13;12.07;;;8.27;;
34960;SDS011;30789;52.030;7.110;2023-04-24T02:54:39;10.50;;;8.35;;
34960;SDS011;30789;52.030;7.110;2023-04-24T02:57:06;10.55;;;7.97;;
34960;SDS011;30789;52.030;7.110;2023-04-24T02:59:32;12.20;;;8.77;;
34960;SDS011;30789;52.030;7.110;2023-04-24T03:01:59;13.48;;;8.93;;
34960;SDS011;30789;52.030;7.110;2023-04-24T03:04:25;13.77;;;8.82;;
34960;SDS011;30789;52.030;7.110;2023-04-24T03:06:54;14.68;;;9.18;;
34960;SDS011;30789;52.030;7.110;2023-04-24T03:09:21;15.30;;;9.93;;
34960;SDS011;30789;52.030;7.110;2023-04-24T03:11:47;17.02;;;9.10;;
34960;SDS011;30789;52.030;7.110;2023-04-24T03:14:14;14.63;;;10.13;;
34960;SDS011;30789;52.030;7.110;2023-04-24T03:16:41;13.65;;;9.88;;
34960;SDS011;30789;52.030;7.110;2023-04-24T03:19:07;17.73;;;10.07;;
34960;SDS011;30789;52.030;7.110;2023-04-24T03:21:34;14.65;;;9.88;;
34960;SDS011;30789;52.030;7.110;2023-04-24T03:24:06;14.23;;;9.82;;
34960;SDS011;30789;52.030;7.110;2023-04-24T03:26:33;14.80;;;10.55;;
34960;SDS011;30789;52.030;7.110;2023-04-24T03:29:00;16.15;;;10.43;;
34960;SDS011;30789;52.030;7.110;2023-04-24T03:31:26;17.88;;;11.60;;
34960;SDS011;30789;52.030;7.110;2023-04-24T03:33:52;16.27;;;10.90;;
34960;SDS011;30789;52.030;7.110;2023-04-24T03:36:19;16.92;;;11.45;;
34960;SDS011;30789;52.030;7.110;2023-04-24T03:38:46;17.20;;;11.40;;
34960;SDS011;30789;52.030;7.110;2023-04-24T03:41:13;18.25;;;12.30;;
34960;SDS011;30789;52.030;7.110;2023-04-24T03:43:40;18.73;;;11.52;;
34960;SDS011;30789;52.030;7.110;2023-04-24T03:46:06;16.92;;;11.63;;
34960;SDS011;30789;52.030;7.110;2023-04-24T03:48:34;17.95;;;11.52;;
34960;SDS011;30789;52.030;7.110;2023-04-24T03:51:00;17.67;;;12.10;;
34960;SDS011;30789;52.030;7.110;2023-04-24T03:53:27;22.08;;;12.68;;
34960;SDS011;30789;52.030;7.110;2023-04-24T03:55:54;21.50;;;11.80;;
34960;SDS011;30789;52.030;7.110;2023-04-24T03:58:22;18.38;;;11.57;;
34960;SDS011;30789;52.030;7.110;2023-04-24T04:00:48;17.15;;;11.82;;
34960;SDS011;30789;52.030;7.110;2023-04-24T04:03:16;17.45;;;12.13;;
34960;SDS011;30789;52.030;7.110;2023-04-24T04:05:42;21.77;;;12.60;;
34960;SDS011;30789;52.030;7.110;2023-04-24T04:08:09;17.02;;;11.85;;
34960;SDS011;30789;52.030;7.110;2023-04-24T04:10:35;18.30;;;12.27;;
34960;SDS011;30789;52.030;7.110;2023-04-24T04:13:02;17.95;;;11.52;;
34960;SDS011;30789;52.030;7.110;2023-04-24T04:15:29;19.17;;;11.82;;
34960;SDS011;30789;52.030;7.110;2023-04-24T04:17:56;20.05;;;12.90;;
34960;SDS011;30789;52.030;7.110;2023-04-24T04:20:22;25.33;;;14.05;;
34960;SDS011;30789;52.030;7.110;2023-04-24T04:22:49;19.05;;;13.48;;
34960;SDS011;30789;52.030;7.110;2023-04-24T04:25:16;23.55;;;14.73;;
34960;SDS011;30789;52.030;7.110;2023-04-24T04:27:44;22.75;;;14.10;;
34960;SDS011;30789;52.030;7.110;2023-04-24T04:30:13;20.80;;;14.40;;
34960;SDS011;30789;52.030;7.110;2023-04-24T04:32:41;26.25;;;15.23;;
34960;SDS011;30789;52.030;7.110;2023-04-24T04:35:07;24.02;;;14.57;;
34960;SDS011;30789;52.030;7.110;2023-04-24T04:37:34;22.13;;;14.93;;
34960;SDS011;30789;52.030;7.110;2023-04-24T04:40:01;20.45;;;14.82;;
34960;SDS011;30789;52.030;7.110;2023-04-24T04:42:31;21.55;;;14.40;;
34960;SDS011;30789;52.030;7.110;2023-04-24T04:44:59;24.45;;;15.68;;
34960;SDS011;30789;52.030;7.110;2023-04-24T04:47:25;24.42;;;16.00;;
34960;SDS011;30789;52.030;7.110;2023-04-24T04:49:58;28.75;;;15.13;;
34960;SDS011;30789;52.030;7.110;2023-04-24T04:52:25;25.00;;;15.63;;
34960;SDS011;30789;52.030;7.110;2023-04-24T04:54:52;24.33;;;15.73;;
34960;SDS011;30789;52.030;7.110;2023-04-24T04:57:18;26.35;;;15.43;;
34960;SDS011;30789;52.030;7.110;2023-04-24T04:59:45;22.13;;;14.82;;
34960;SDS011;30789;52.030;7.110;2023-04-24T05:02:12;26.05;;;15.40;;
34960;SDS011;30789;52.030;7.110;2023-04-24T05:04:38;20.25;;;14.73;;
34960;SDS011;30789;52.030;7.110;2023-04-24T05:07:06;24.58;;;14.68;;
34960;SDS011;30789;52.030;7.110;2023-04-24T05:09:32;23.70;;;14.73;;
34960;SDS011;30789;52.030;7.110;2023-04-24T05:11:59;24.10;;;15.50;;
34960;SDS011;30789;52.030;7.110;2023-04-24T05:14:27;25.42;;;16.27;;
34960;SDS011;30789;52.030;7.110;2023-04-24T05:16:53;20.30;;;14.95;;
34960;SDS011;30789;52.030;7.110;2023-04-24T05:19:20;25.63;;;14.70;;
34960;SDS011;30789;52.030;7.110;2023-04-24T05:21:46;23.38;;;15.38;;
34960;SDS011;30789;52.030;7.110;2023-04-24T05:24:14;25.13;;;15.07;;
34960;SDS011;30789;52.030;7.110;2023-04-24T05:26:40;22.48;;;14.32;;
34960;SDS011;30789;52.030;7.110;2023-04-24T05:29:07;21.90;;;14.43;;
34960;SDS011;30789;52.030;7.110;2023-04-24T05:31:33;22.60;;;14.68;;
34960;SDS011;30789;52.030;7.110;2023-04-24T05:34:00;19.60;;;12.95;;
34960;SDS011;30789;52.030;7.110;2023-04-24T05:36:26;21.02;;;13.93;;
34960;SDS011;30789;52.030;7.110;2023-04-24T05:38:53;24.17;;;13.88;;
34960;SDS011;30789;52.030;7.110;2023-04-24T05:41:21;26.02;;;14.63;;
34960;SDS011;30789;52.030;7.110;2023-04-24T05:43:48;22.05;;;14.60;;
34960;SDS011;30789;52.030;7.110;2023-04-24T05:46:14;19.60;;;13.75;;
34960;SDS011;30789;52.030;7.110;2023-04-24T05:48:41;17.67;;;12.52;;
34960;SDS011;30789;52.030;7.110;2023-04-24T05:51:08;24.38;;;14.27;;
34960;SDS011;30789;52.030;7.110;2023-04-24T05:53:35;20.05;;;13.32;;
34960;SDS011;30789;52.030;7.110;2023-04-24T05:56:01;22.55;;;13.68;;
34960;SDS011;30789;52.030;7.110;2023-04-24T05:58:29;20.63;;;13.20;;
34960;SDS011;30789;52.030;7.110;2023-04-24T06:00:56;20.13;;;13.27;;
34960;SDS011;30789;52.030;7.110;2023-04-24T06:03:23;20.88;;;13.05;;
34960;SDS011;30789;52.030;7.110;2023-04-24T06:05:50;20.63;;;12.20;;
34960;SDS011;30789;52.030;7.110;2023-04-24T06:08:16;19.17;;;12.27;;
34960;SDS011;30789;52.030;7.110;2023-04-24T06:10:43;19.77;;;12.25;;
34960;SDS011;30789;52.030;7.110;2023-04-24T06:13:10;20.02;;;12.25;;
34960;SDS011;30789;52.030;7.110;2023-04-24T06:15:38;21.60;;;12.88;;
34960;SDS011;30789;52.030;7.110;2023-04-24T06:18:05;17.48;;;12.10;;
34960;SDS011;30789;52.030;7.110;2023-04-24T06:20:32;18.73;;;11.38;;
34960;SDS011;30789;52.030;7.110;2023-04-24T06:22:58;19.15;;;12.30;;
34960;SDS011;30789;52.030;7.110;2023-04-24T06:25:25;16.52;;;11.32;;
34960;SDS011;30789;52.030;7.110;2023-04-24T06:27:52;17.45;;;10.80;;
34960;SDS011;30789;52.030;7.110;2023-04-24T06:30:18;17.42;;;11.35;;
34960;SDS011;30789;52.030;7.110;2023-04-24T06:32:46;16.77;;;10.13;;
34960;SDS011;30789;52.030;7.110;2023-04-24T06:35:13;14.77;;;10.07;;
34960;SDS011;30789;52.030;7.110;2023-04-24T06:37:41;13.05;;;8.85;;
34960;SDS011;30789;52.030;7.110;2023-04-24T06:40:09;12.73;;;9.30;;
34960;SDS011;30789;52.030;7.110;2023-04-24T06:42:36;14.77;;;8.60;;
34960;SDS011;30789;52.030;7.110;2023-04-24T06:45:03;15.50;;;9.80;;
34960;SDS011;30789;52.030;7.110;2023-04-24T06:47:30;13.23;;;9.30;;
34960;SDS011;30789;52.030;7.110;2023-04-24T06:49:58;14.55;;;9.75;;
34960;SDS011;30789;52.030;7.110;2023-04-24T06:52:25;12.55;;;9.18;;
34960;SDS011;30789;52.030;7.110;2023-04-24T06:54:51;14.98;;;8.70;;
34960;SDS011;30789;52.030;7.110;2023-04-24T06:57:18;11.35;;;9.50;;
34960;SDS011;30789;52.030;7.110;2023-04-24T06:59:46;13.20;;;9.52;;
34960;SDS011;30789;52.030;7.110;2023-04-24T07:02:12;10.57;;;8.00;;
34960;SDS011;30789;52.030;7.110;2023-04-24T07:04:38;11.02;;;7.45;;
34960;SDS011;30789;52.030;7.110;2023-04-24T07:07:07;11.68;;;8.27;;
34960;SDS011;30789;52.030;7.110;2023-04-24T07:09:34;12.25;;;8.45;;
34960;SDS011;30789;52.030;7.110;2023-04-24T07:12:03;10.00;;;7.18;;
34960;SDS011;30789;52.030;7.110;2023-04-24T07:14:30;12.85;;;7.38;;
34960;SDS011;30789;52.030;7.110;2023-04-24T07:16:56;10.65;;;8.35;;
34960;SDS011;30789;52.030;7.110;2023-04-24T07:19:23;10.40;;;7.25;;
34960;SDS011;30789;52.030;7.110;2023-04-24T07:21:50;10.90;;;7.45;;
34960;SDS011;30789;52.030;7.110;2023-04-24T07:24:17;8.93;;;6.53;;
34960;SDS011;30789;52.030;7.110;2023-04-24T07:26:44;9.40;;;6.78;;
34960;SDS011;30789;52.030;7.110;2023-04-24T07:29:11;11.70;;;7.32;;
34960;SDS011;30789;52.030;7.110;2023-04-24T07:31:38;9.90;;;7.45;;
34960;SDS011;30789;52.030;7.110;2023-04-24T07:34:06;9.70;;;7.63;;
34960;SDS011;30789;52.030;7.110;2023-04-24T07:36:32;9.75;;;6.93;;
34960;SDS011;30789;52.030;7.110;2023-04-24T07:38:59;9.68;;;6.93;;
34960;SDS011;30789;52.030;7.110;2023-04-24T07:41:27;9.32;;;7.20;;
34960;SDS011;30789;52.030;7.110;2023-04-24T07:43:53;8.80;;;6.57;;
34960;SDS011;30789;52.030;7.110;2023-04-24T07:46:20;8.02;;;6.63;;
34960;SDS011;30789;52.030;7.110;2023-04-24T07:48:48;8.82;;;7.15;;
34960;SDS011;30789;52.030;7.110;2023-04-24T07:51:15;8.02;;;6.28;;
34960;SDS011;30789;52.030;7.110;2023-04-24T07:53:42;8.60;;;6.82;;
34960;SDS011;30789;52.030;7.110;2023-04-24T07:56:08;12.10;;;7.05;;
34960;SDS011;30789;52.030;7.110;2023-04-24T07:58:37;8.98;;;6.85;;
34960;SDS011;30789;52.030;7.110;2023-04-24T08:01:03;10.75;;;6.80;;
34960;SDS011;30789;52.030;7.110;2023-04-24T08:03:30;8.80;;;6.50;;
34960;SDS011;30789;52.030;7.110;2023-04-24T08:05:57;7.38;;;6.00;;
34960;SDS011;30789;52.030;7.110;2023-04-24T08:08:23;6.70;;;6.00;;
34960;SDS011;30789;52.030;7.110;2023-04-24T08:10:49;7.78;;;6.13;;
34960;SDS011;30789;52.030;7.110;2023-04-24T08:13:16;6.00;;;5.22;;
34960;SDS011;30789;52.030;7.110;2023-04-24T08:15:44;7.70;;;5.93;;
34960;SDS011;30789;52.030;7.110;2023-04-24T08:18:11;9.20;;;5.18;;
34960;SDS011;30789;52.030;7.110;2023-04-24T08:20:38;7.25;;;5.20;;
34960;SDS011;30789;52.030;7.110;2023-04-24T08:23:05;8.18;;;5.90;;
34960;SDS011;30789;52.030;7.110;2023-04-24T08:25:31;8.38;;;5.40;;
34960;SDS011;30789;52.030;7.110;2023-04-24T08:28:00;6.75;;;4.65;;
34960;SDS011;30789;52.030;7.110;2023-04-24T08:30:27;7.40;;;5.18;;
34960;SDS011;30789;52.030;7.110;2023-04-24T08:32:56;7.43;;;5.32;;
34960;SDS011;30789;52.030;7.110;2023-04-24T08:35:22;6.75;;;4.70;;
34960;SDS011;30789;52.030;7.110;2023-04-24T08:37:49;7.20;;;5.05;;
34960;SDS011;30789;52.030;7.110;2023-04-24T08:40:16;8.52;;;4.60;;
34960;SDS011;30789;52.030;7.110;2023-04-24T08:42:42;6.90;;;5.28;;
34960;SDS011;30789;52.030;7.110;2023-04-24T08:45:10;5.85;;;4.18;;
34960;SDS011;30789;52.030;7.110;2023-04-24T08:47:38;7.88;;;4.68;;
34960;SDS011;30789;52.030;7.110;2023-04-24T08:50:07;6.50;;;4.68;;
34960;SDS011;30789;52.030;7.110;2023-04-24T08:52:35;6.45;;;5.03;;
34960;SDS011;30789;52.030;7.110;2023-04-24T08:55:01;5.03;;;4.22;;
34960;SDS011;30789;52.030;7.110;2023-04-24T08:57:28;7.35;;;4.75;;
34960;SDS011;30789;52.030;7.110;2023-04-24T08:59:57;5.18;;;4.13;;
34960;SDS011;30789;52.030;7.110;2023-04-24T09:02:24;4.82;;;4.30;;
34960;SDS011;30789;52.030;7.110;2023-04-24T09:04:51;6.13;;;4.32;;
34960;SDS011;30789;52.030;7.110;2023-04-24T09:07:20;5.50;;;4.47;;
34960;SDS011;30789;52.030;7.110;2023-04-24T09:09:50;8.18;;;4.60;;
34960;SDS011;30789;52.030;7.110;2023-04-24T09:12:17;5.55;;;4.25;;
34960;SDS011;30789;52.030;7.110;2023-04-24T09:14:44;4.65;;;3.65;;
34960;SDS011;30789;52.030;7.110;2023-04-24T09:17:11;5.43;;;3.83;;
34960;SDS011;30789;52.030;7.110;2023-04-24T09:19:38;4.90;;;3.53;;
34960;SDS011;30789;52.030;7.110;2023-04-24T09:22:06;4.75;;;3.88;;
34960;SDS011;30789;52.030;7.110;2023-04-24T09:24:34;4.78;;;3.97;;
34960;SDS011;30789;52.030;7.110;2023-04-24T09:27:01;4.88;;;3.80;;
34960;SDS011;30789;52.030;7.110;2023-04-24T09:29:28;5.00;;;4.18;;
34960;SDS011;30789;52.030;7.110;2023-04-24T09:31:56;7.43;;;3.75;;
34960;SDS011;30789;52.030;7.110;2023-04-24T09:34:23;6.75;;;4.07;;
34960;SDS011;30789;52.030;7.110;2023-04-24T09:36:51;6.90;;;3.65;;
34960;SDS011;30789;52.030;7.110;2023-04-24T09:39:18;7.28;;;3.90;;
34960;SDS011;30789;52.030;7.110;2023-04-24T09:41:48;5.53;;;4.28;;
34960;SDS011;30789;52.030;7.110;2023-04-24T09:44:16;4.88;;;3.78;;
34960;SDS011;30789;52.030;7.110;2023-04-24T09:46:45;2.90;;;2.70;;
34960;SDS011;30789;52.030;7.110;2023-04-24T09:49:16;5.10;;;3.40;;
34960;SDS011;30789;52.030;7.110;2023-04-24T09:51:50;3.88;;;3.30;;
34960;SDS011;30789;52.030;7.110;2023-04-24T09:54:16;6.25;;;3.53;;
34960;SDS011;30789;52.030;7.110;2023-04-24T09:56:45;5.78;;;4.30;;
34960;SDS011;30789;52.030;7.110;2023-04-24T09:59:13;7.88;;;5.35;;
34960;SDS011;30789;52.030;7.110;2023-04-24T10:01:40;10.57;;;5.18;;
34960;SDS011;30789;52.030;7.110;2023-04-24T10:04:15;6.80;;;5.70;;
34960;SDS011;30789;52.030;7.110;2023-04-24T10:06:43;8.75;;;5.70;;
34960;SDS011;30789;52.030;7.110;2023-04-24T10:09:10;12.43;;;6.47;;
34960;SDS011;30789;52.030;7.110;2023-04-24T10:11:39;10.70;;;6.13;;
34960;SDS011;30789;52.030;7.110;2023-04-24T10:14:10;8.07;;;6.13;;
34960;SDS011;30789;52.030;7.110;2023-04-24T10:16:39;7.38;;;5.72;;
34960;SDS011;30789;52.030;7.110;2023-04-24T10:19:06;9.93;;;6.40;;
34960;SDS011;30789;52.030;7.110;2023-04-24T10:21:33;7.15;;;5.45;;
34960;SDS011;30789;52.030;7.110;2023-04-24T10:24:00;7.03;;;5.75;;
34960;SDS011;30789;52.030;7.110;2023-04-24T10:26:28;6.97;;;5.40;;
34960;SDS011;30789;52.030;7.110;2023-04-24T10:28:55;7.88;;;5.47;;
34960;SDS011;30789;52.030;7.110;2023-04-24T10:31:25;9.23;;;5.60;;
34960;SDS011;30789;52.030;7.110;2023-04-24T10:33:53;10.05;;;4.93;;
34960;SDS011;30789;52.030;7.110;2023-04-24T10:36:21;7.47;;;4.95;;
34960;SDS011;30789;52.030;7.110;2023-04-24T10:38:48;7.40;;;5.03;;
34960;SDS011;30789;52.030;7.110;2023-04-24T10:41:16;10.50;;;5.25;;
34960;SDS011;30789;52.030;7.110;2023-04-24T10:43:45;9.48;;;5.43;;
34960;SDS011;30789;52.030;7.110;2023-04-24T10:46:16;9.27;;;5.55;;
34960;SDS011;30789;52.030;7.110;2023-04-24T10:48:51;9.40;;;5.40;;
34960;SDS011;30789;52.030;7.110;2023-04-24T10:51:18;7.85;;;5.50;;
34960;SDS011;30789;52.030;7.110;2023-04-24T10:53:49;9.85;;;5.18;;
34960;SDS011;30789;52.030;7.110;2023-04-24T10:56:16;6.00;;;4.28;;
34960;SDS011;30789;52.030;7.110;2023-04-24T10:58:44;7.20;;;4.28;;
34960;SDS011;30789;52.030;7.110;2023-04-24T11:01:23;6.90;;;4.50;;
34960;SDS011;30789;52.030;7.110;2023-04-24T11:03:54;5.00;;;3.80;;
34960;SDS011;30789;52.030;7.110;2023-04-24T11:06:28;6.18;;;3.72;;
34960;SDS011;30789;52.030;7.110;2023-04-24T11:08:59;5.85;;;4.00;;
34960;SDS011;30789;52.030;7.110;2023-04-24T11:11:30;4.82;;;3.40;;
34960;SDS011;30789;52.030;7.110;2023-04-24T11:14:06;3.45;;;2.85;;
34960;SDS011;30789;52.030;7.110;2023-04-24T11:16:34;5.20;;;3.22;;
34960;SDS011;30789;52.030;7.110;2023-04-24T11:19:18;4.07;;;2.78;;
34960;SDS011;30789;52.030;7.110;2023-04-24T11:21:48;5.97;;;2.90;;
34960;SDS011;30789;52.030;7.110;2023-04-24T11:24:22;7.45;;;3.05;;
34960;SDS011;30789;52.030;7.110;2023-04-24T11:27:06;7.22;;;3.30;;
34960;SDS011;30789;52.030;7.110;2023-04-24T11:29:39;9.85;;;3.28;;
34960;SDS011;30789;52.030;7.110;2023-04-24T11:32:23;3.88;;;2.92;;
34960;SDS011;30789;52.030;7.110;2023-04-24T11:34:52;6.57;;;3.28;;
34960;SDS011;30789;52.030;7.110;2023-04-24T11:37:21;6.70;;;3.58;;
34960;SDS011;30789;52.030;7.110;2023-04-24T11:39:50;10.00;;;4.15;;
34960;SDS011;30789;52.030;7.110;2023-04-24T11:42:17;10.20;;;4.65;;
34960;SDS011;30789;52.030;7.110;2023-04-24T11:44:44;12.95;;;4.90;;
34960;SDS011;30789;52.030;7.110;2023-04-24T11:47:12;10.48;;;4.63;;
34960;SDS011;30789;52.030;7.110;2023-04-24T11:49:39;9.77;;;4.45;;
34960;SDS011;30789;52.030;7.110;2023-04-24T11:52:07;9.57;;;4.15;;
34960;SDS011;30789;52.030;7.110;2023-04-24T11:54:33;7.90;;;4.47;;
34960;SDS011;30789;52.030;7.110;2023-04-24T11:57:00;8.68;;;4.60;;
34960;SDS011;30789;52.030;7.110;2023-04-24T11:59:34;7.97;;;4.40;;
34960;SDS011;30789;52.030;7.110;2023-04-24T12:02:01;8.60;;;3.50;;
34960;SDS011;30789;52.030;7.110;2023-04-24T12:04:37;6.45;;;3.70;;
34960;SDS011;30789;52.030;7.110;2023-04-24T12:07:06;7.90;;;3.97;;
34960;SDS011;30789;52.030;7.110;2023-04-24T12:09:40;9.20;;;4.20;;
34960;SDS011;30789;52.030;7.110;2023-04-24T12:12:08;9.40;;;4.13;;
34960;SDS011;30789;52.030;7.110;2023-04-24T12:14:41;9.38;;;3.72;;
34960;SDS011;30789;52.030;7.110;2023-04-24T12:17:08;11.18;;;3.92;;
34960;SDS011;30789;52.030;7.110;2023-04-24T12:19:35;9.57;;;3.50;;
34960;SDS011;30789;52.030;7.110;2023-04-24T12:22:02;10.07;;;3.67;;
34960;SDS011;30789;52.030;7.110;2023-04-24T12:24:32;8.95;;;3.53;;
34960;SDS011;30789;52.030;7.110;2023-04-24T12:26:58;7.78;;;3.20;;
34960;SDS011;30789;52.030;7.110;2023-04-24T12:29:26;6.47;;;2.75;;
34960;SDS011;30789;52.030;7.110;2023-04-24T12:31:54;8.07;;;3.33;;
34960;SDS011;30789;52.030;7.110;2023-04-24T12:34:20;6.22;;;3.25;;
34960;SDS011;30789;52.030;7.110;2023-04-24T12:36:48;7.97;;;3.53;;
34960;SDS011;30789;52.030;7.110;2023-04-24T12:39:15;7.60;;;3.50;;
34960;SDS011;30789;52.030;7.110;2023-04-24T12:41:53;7.82;;;3.95;;
34960;SDS011;30789;52.030;7.110;2023-04-24T12:44:28;5.57;;;2.88;;
34960;SDS011;30789;52.030;7.110;2023-04-24T12:46:55;4.88;;;2.60;;
34960;SDS011;30789;52.030;7.110;2023-04-24T12:49:22;9.20;;;3.20;;
34960;SDS011;30789;52.030;7.110;2023-04-24T12:51:48;6.50;;;2.78;;
34960;SDS011;30789;52.030;7.110;2023-04-24T12:54:15;6.78;;;3.05;;
34960;SDS011;30789;52.030;7.110;2023-04-24T12:56:41;7.30;;;2.70;;
34960;SDS011;30789;52.030;7.110;2023-04-24T12:59:09;6.15;;;2.47;;
34960;SDS011;30789;52.030;7.110;2023-04-24T13:01:36;3.05;;;2.17;;
34960;SDS011;30789;52.030;7.110;2023-04-24T13:04:02;2.80;;;2.47;;
34960;SDS011;30789;52.030;7.110;2023-04-24T13:06:29;6.15;;;2.00;;
34960;SDS011;30789;52.030;7.110;2023-04-24T13:08:56;5.38;;;2.47;;
34960;SDS011;30789;52.030;7.110;2023-04-24T13:11:23;3.97;;;2.20;;
34960;SDS011;30789;52.030;7.110;2023-04-24T13:13:49;7.43;;;2.47;;
34960;SDS011;30789;52.030;7.110;2023-04-24T13:16:17;2.20;;;1.83;;
34960;SDS011;30789;52.030;7.110;2023-04-24T13:18:44;3.65;;;1.75;;
34960;SDS011;30789;52.030;7.110;2023-04-24T13:21:10;4.47;;;1.58;;
34960;SDS011;30789;52.030;7.110;2023-04-24T13:23:36;3.45;;;1.60;;
34960;SDS011;30789;52.030;7.110;2023-04-24T13:26:03;3.50;;;1.40;;
34960;SDS011;30789;52.030;7.110;2023-04-24T13:28:30;5.70;;;1.27;;
34960;SDS011;30789;52.030;7.110;2023-04-24T13:30:56;2.33;;;1.25;;
34960;SDS011;30789;52.030;7.110;2023-04-24T13:33:24;4.75;;;1.67;;
34960;SDS011;30789;52.030;7.110;2023-04-24T13:35:51;2.35;;;1.65;;
34960;SDS011;30789;52.030;7.110;2023-04-24T13:38:17;2.97;;;1.13;;
34960;SDS011;30789;52.030;7.110;2023-04-24T13:40:46;3.58;;;1.48;;
34960;SDS011;30789;52.030;7.110;2023-04-24T13:43:12;3.10;;;1.70;;
34960;SDS011;30789;52.030;7.110;2023-04-24T13:45:39;5.38;;;1.83;;
34960;SDS011;30789;52.030;7.110;2023-04-24T13:48:05;2.30;;;1.33;;
34960;SDS011;30789;52.030;7.110;2023-04-24T13:50:35;1.98;;;1.08;;
34960;SDS011;30789;52.030;7.110;2023-04-24T13:53:01;2.47;;;0.93;;
34960;SDS011;30789;52.030;7.110;2023-04-24T13:55:28;1.83;;;0.90;;
34960;SDS011;30789;52.030;7.110;2023-04-24T13:57:55;2.45;;;0.98;;
34960;SDS011;30789;52.030;7.110;2023-04-24T14:00:22;1.92;;;1.20;;
34960;SDS011;30789;52.030;7.110;2023-04-24T14:02:48;3.60;;;1.10;;
34960;SDS011;30789;52.030;7.110;2023-04-24T14:05:15;2.10;;;1.15;;
34960;SDS011;30789;52.030;7.110;2023-04-24T14:07:43;2.28;;;0.82;;
34960;SDS011;30789;52.030;7.110;2023-04-24T14:10:10;2.33;;;0.88;;
34960;SDS011;30789;52.030;7.110;2023-04-24T14:12:36;4.55;;;1.13;;
34960;SDS011;30789;52.030;7.110;2023-04-24T14:15:03;0.98;;;0.85;;
34960;SDS011;30789;52.030;7.110;2023-04-24T14:17:30;3.28;;;1.10;;
34960;SDS011;30789;52.030;7.110;2023-04-24T14:19:57;3.85;;;1.25;;
34960;SDS011;30789;52.030;7.110;2023-04-24T14:22:25;1.92;;;1.10;;
34960;SDS011;30789;52.030;7.110;2023-04-24T14:24:53;4.75;;;1.20;;
34960;SDS011;30789;52.030;7.110;2023-04-24T14:27:20;2.90;;;1.20;;
34960;SDS011;30789;52.030;7.110;2023-04-24T14:29:46;2.60;;;0.90;;
34960;SDS011;30789;52.030;7.110;2023-04-24T14:32:13;1.48;;;1.00;;
34960;SDS011;30789;52.030;7.110;2023-04-24T14:34:40;5.95;;;1.50;;
34960;SDS011;30789;52.030;7.110;2023-04-24T14:37:07;1.85;;;0.98;;
34960;SDS011;30789;52.030;7.110;2023-04-24T14:39:33;3.20;;;1.00;;
34960;SDS011;30789;52.030;7.110;2023-04-24T14:42:01;2.25;;;0.93;;